sensor_id;sensor_type;location;lat;lon;timestamp;pressure;altitude;pressure_sealevel;temperature;humidity
48402;BME280;65988;52.422;16.746;2023-07-29T00:01:00;99383.50;;;28.02;51.79
48402;BME280;65988;52.422;16.746;2023-07-29T00:03:31;99376.41;;;28.17;51.65
48402;BME280;65988;52.422;16.746;2023-07-29T00:05:57;99475.13;;;27.75;52.91
48402;BME280;65988;52.422;16.746;2023-07-29T00:08:23;99525.84;;;27.40;53.93
48402;BME280;65988;52.422;16.746;2023-07-29T00:10:51;99671.25;;;29.05;51.79
48402;BME280;65988;52.422;16.746;2023-07-29T00:13:16;99446.72;;;28.53;51.33
48402;BME280;65988;52.422;16.746;2023-07-29T00:15:43;99414.75;;;27.92;52.12
48402;BME280;65988;52.422;16.746;2023-07-29T00:18:11;99476.44;;;27.79;52.69
48402;BME280;65988;52.422;16.746;2023-07-29T00:20:41;99621.69;;;28.89;52.03
48402;BME280;65988;52.422;16.746;2023-07-29T00:23:07;99455.06;;;28.50;51.49
48402;BME280;65988;52.422;16.746;2023-07-29T00:25:33;99406.63;;;28.63;51.08
48402;BME280;65988;52.422;16.746;2023-07-29T00:27:58;99469.28;;;28.57;51.22
48402;BME280;65988;52.422;16.746;2023-07-29T00:30:26;99466.03;;;28.47;51.72
48402;BME280;65988;52.422;16.746;2023-07-29T00:32:52;99361.13;;;28.88;50.41
48402;BME280;65988;52.422;16.746;2023-07-29T00:35:17;99340.69;;;28.88;50.50
48402;BME280;65988;52.422;16.746;2023-07-29T00:37:45;99571.50;;;29.24;51.08
48402;BME280;65988;52.422;16.746;2023-07-29T00:40:20;99509.53;;;29.60;49.40
48402;BME280;65988;52.422;16.746;2023-07-29T00:42:52;99519.09;;;29.55;49.35
48402;BME280;65988;52.422;16.746;2023-07-29T00:45:20;99451.16;;;29.95;48.70
48402;BME280;65988;52.422;16.746;2023-07-29T00:47:45;99446.06;;;28.74;50.37
48402;BME280;65988;52.422;16.746;2023-07-29T00:50:15;99461.22;;;28.04;51.17
48402;BME280;65988;52.422;16.746;2023-07-29T00:52:44;99479.63;;;28.06;51.48
48402;BME280;65988;52.422;16.746;2023-07-29T00:55:14;99352.97;;;28.21;50.42
48402;BME280;65988;52.422;16.746;2023-07-29T00:57:47;99461.75;;;28.46;50.58
48402;BME280;65988;52.422;16.746;2023-07-29T01:00:14;99435.47;;;28.05;50.62
48402;BME280;65988;52.422;16.746;2023-07-29T01:02:42;99517.56;;;27.83;51.84
48402;BME280;65988;52.422;16.746;2023-07-29T01:05:12;99504.06;;;28.01;51.42
48402;BME280;65988;52.422;16.746;2023-07-29T01:07:50;99538.59;;;28.56;50.92
48402;BME280;65988;52.422;16.746;2023-07-29T01:15:59;99520.97;;;29.01;49.72
48402;BME280;65988;52.422;16.746;2023-07-29T01:18:31;99491.50;;;29.02;49.61
48402;BME280;65988;52.422;16.746;2023-07-29T01:21:03;99501.38;;;28.79;50.12
48402;BME280;65988;52.422;16.746;2023-07-29T01:23:30;99464.50;;;28.52;50.08
48402;BME280;65988;52.422;16.746;2023-07-29T01:25:58;99447.34;;;28.55;49.88
48402;BME280;65988;52.422;16.746;2023-07-29T01:28:27;99494.16;;;27.78;50.94
48402;BME280;65988;52.422;16.746;2023-07-29T01:31:03;99449.53;;;27.42;51.67
48402;BME280;65988;52.422;16.746;2023-07-29T01:33:40;99493.47;;;28.47;50.24
48402;BME280;65988;52.422;16.746;2023-07-29T01:36:21;99493.84;;;28.59;50.33
48402;BME280;65988;52.422;16.746;2023-07-29T01:38:50;99389.84;;;27.93;50.51
48402;BME280;65988;52.422;16.746;2023-07-29T01:41:17;99453.00;;;28.14;50.60
48402;BME280;65988;52.422;16.746;2023-07-29T01:43:44;99441.06;;;28.10;50.48
48402;BME280;65988;52.422;16.746;2023-07-29T01:46:15;99447.72;;;28.29;50.38
48402;BME280;65988;52.422;16.746;2023-07-29T01:48:41;99453.91;;;27.66;51.56
48402;BME280;65988;52.422;16.746;2023-07-29T01:51:11;99560.84;;;28.31;51.49
48402;BME280;65988;52.422;16.746;2023-07-29T01:53:39;99476.72;;;28.62;50.03
48402;BME280;65988;52.422;16.746;2023-07-29T01:56:10;99493.34;;;28.41;50.55
48402;BME280;65988;52.422;16.746;2023-07-29T01:58:36;99287.84;;;26.20;53.09
48402;BME280;65988;52.422;16.746;2023-07-29T02:01:01;99308.31;;;26.68;52.32
48402;BME280;65988;52.422;16.746;2023-07-29T02:03:29;99283.31;;;26.70;52.36
48402;BME280;65988;52.422;16.746;2023-07-29T02:05:57;99497.25;;;27.98;51.19
48402;BME280;65988;52.422;16.746;2023-07-29T02:08:26;99417.28;;;27.62;51.08
48402;BME280;65988;52.422;16.746;2023-07-29T02:10:51;99255.59;;;27.12;50.80
48402;BME280;65988;52.422;16.746;2023-07-29T02:13:17;99192.63;;;26.75;51.46
48402;BME280;65988;52.422;16.746;2023-07-29T02:15:42;99256.59;;;26.80;52.00
48402;BME280;65988;52.422;16.746;2023-07-29T02:18:10;99475.47;;;27.07;52.53
48402;BME280;65988;52.422;16.746;2023-07-29T02:20:41;99351.56;;;26.60;52.45
48402;BME280;65988;52.422;16.746;2023-07-29T02:23:14;99351.75;;;26.58;52.63
48402;BME280;65988;52.422;16.746;2023-07-29T02:25:42;99239.72;;;25.00;54.37
48402;BME280;65988;52.422;16.746;2023-07-29T02:28:13;99448.44;;;26.13;53.91
48402;BME280;65988;52.422;16.746;2023-07-29T02:30:41;99475.50;;;26.99;52.28
48402;BME280;65988;52.422;16.746;2023-07-29T02:33:07;99477.84;;;25.93;53.87
48402;BME280;65988;52.422;16.746;2023-07-29T02:35:35;99493.84;;;25.75;54.41
48402;BME280;65988;52.422;16.746;2023-07-29T02:38:01;99457.03;;;24.95;55.89
48402;BME280;65988;52.422;16.746;2023-07-29T02:40:29;99492.81;;;26.03;54.48
48402;BME280;65988;52.422;16.746;2023-07-29T02:42:54;99344.81;;;26.24;52.40
48402;BME280;65988;52.422;16.746;2023-07-29T02:45:20;99302.13;;;26.11;52.63
48402;BME280;65988;52.422;16.746;2023-07-29T02:47:47;99255.38;;;26.43;52.12
48402;BME280;65988;52.422;16.746;2023-07-29T02:50:13;99305.19;;;25.49;54.08
48402;BME280;65988;52.422;16.746;2023-07-29T02:52:40;99377.59;;;26.48;52.42
48402;BME280;65988;52.422;16.746;2023-07-29T02:55:08;99303.00;;;26.76;51.29
48402;BME280;65988;52.422;16.746;2023-07-29T02:57:41;99460.50;;;28.10;50.21
48402;BME280;65988;52.422;16.746;2023-07-29T03:00:07;99421.16;;;26.70;51.98
48402;BME280;65988;52.422;16.746;2023-07-29T03:02:35;99582.91;;;28.00;51.19
48402;BME280;65988;52.422;16.746;2023-07-29T03:05:07;99509.63;;;28.14;50.66
48402;BME280;65988;52.422;16.746;2023-07-29T03:07:33;99299.09;;;25.81;53.35
48402;BME280;65988;52.422;16.746;2023-07-29T03:09:58;99298.16;;;26.07;52.68
48402;BME280;65988;52.422;16.746;2023-07-29T03:12:29;99583.56;;;27.30;52.19
48402;BME280;65988;52.422;16.746;2023-07-29T03:14:59;99314.66;;;25.92;52.77
48402;BME280;65988;52.422;16.746;2023-07-29T03:17:28;99463.72;;;26.27;52.99
48402;BME280;65988;52.422;16.746;2023-07-29T03:19:59;99393.31;;;26.83;51.75
48402;BME280;65988;52.422;16.746;2023-07-29T03:22:30;99450.13;;;25.71;54.54
48402;BME280;65988;52.422;16.746;2023-07-29T03:24:57;99527.69;;;26.98;52.76
48402;BME280;65988;52.422;16.746;2023-07-29T03:27:22;99510.94;;;26.40;53.09
48402;BME280;65988;52.422;16.746;2023-07-29T03:29:51;99581.69;;;27.63;51.97
48402;BME280;65988;52.422;16.746;2023-07-29T03:32:17;99326.09;;;27.07;51.20
48402;BME280;65988;52.422;16.746;2023-07-29T03:34:42;99294.81;;;25.80;52.87
48402;BME280;65988;52.422;16.746;2023-07-29T03:37:22;99530.34;;;27.07;52.20
48402;BME280;65988;52.422;16.746;2023-07-29T03:39:56;99395.09;;;25.32;54.63
48402;BME280;65988;52.422;16.746;2023-07-29T03:42:30;99403.66;;;25.77;54.25
48402;BME280;65988;52.422;16.746;2023-07-29T03:45:09;99552.06;;;26.69;53.81
48402;BME280;65988;52.422;16.746;2023-07-29T03:47:37;99592.59;;;26.53;55.07
48402;BME280;65988;52.422;16.746;2023-07-29T03:50:17;99623.25;;;27.96;52.33
48402;BME280;65988;52.422;16.746;2023-07-29T03:52:48;99555.72;;;26.85;54.26
48402;BME280;65988;52.422;16.746;2023-07-29T03:55:16;99473.28;;;26.20;54.40
48402;BME280;65988;52.422;16.746;2023-07-29T03:58:05;99535.97;;;27.37;53.39
48402;BME280;65988;52.422;16.746;2023-07-29T04:00:39;99734.19;;;28.02;53.27
48402;BME280;65988;52.422;16.746;2023-07-29T04:03:08;99590.88;;;27.03;54.56
48402;BME280;65988;52.422;16.746;2023-07-29T04:05:43;99597.50;;;26.32;55.46
48402;BME280;65988;52.422;16.746;2023-07-29T04:08:12;99487.78;;;24.60;57.85
48402;BME280;65988;52.422;16.746;2023-07-29T04:10:40;99688.97;;;26.44;56.82
48402;BME280;65988;52.422;16.746;2023-07-29T04:13:08;99517.72;;;26.43;55.12
48402;BME280;65988;52.422;16.746;2023-07-29T04:15:47;99692.53;;;28.82;52.24
48402;BME280;65988;52.422;16.746;2023-07-29T04:18:15;99474.03;;;26.80;53.93
48402;BME280;65988;52.422;16.746;2023-07-29T04:20:50;99655.06;;;28.68;52.07
48402;BME280;65988;52.422;16.746;2023-07-29T04:23:18;99380.06;;;26.50;54.19
48402;BME280;65988;52.422;16.746;2023-07-29T04:25:47;99683.25;;;27.49;54.02
48402;BME280;65988;52.422;16.746;2023-07-29T04:28:15;99636.72;;;27.94;53.18
48402;BME280;65988;52.422;16.746;2023-07-29T04:30:41;99593.50;;;27.28;53.82
48402;BME280;65988;52.422;16.746;2023-07-29T04:33:07;99351.97;;;28.22;51.07
48402;BME280;65988;52.422;16.746;2023-07-29T04:35:34;99431.44;;;28.09;51.43
48402;BME280;65988;52.422;16.746;2023-07-29T04:38:00;99278.31;;;28.31;50.85
48402;BME280;65988;52.422;16.746;2023-07-29T04:40:26;99445.03;;;28.14;51.91
48402;BME280;65988;52.422;16.746;2023-07-29T04:42:51;99484.19;;;28.66;51.80
48402;BME280;65988;52.422;16.746;2023-07-29T04:45:17;99427.94;;;29.38;49.97
48402;BME280;65988;52.422;16.746;2023-07-29T04:47:42;99453.47;;;29.32;49.83
48402;BME280;65988;52.422;16.746;2023-07-29T04:50:08;99533.66;;;30.03;49.69
48402;BME280;65988;52.422;16.746;2023-07-29T04:52:34;99452.31;;;30.08;49.07
48402;BME280;65988;52.422;16.746;2023-07-29T04:55:10;99534.09;;;31.37;47.50
48402;BME280;65988;52.422;16.746;2023-07-29T04:57:35;99501.28;;;30.86;48.26
48402;BME280;65988;52.422;16.746;2023-07-29T05:00:08;99621.94;;;31.03;48.43
48402;BME280;65988;52.422;16.746;2023-07-29T05:03:18;99651.78;;;31.14;48.57
48402;BME280;65988;52.422;16.746;2023-07-29T05:05:47;99486.09;;;30.87;47.87
48402;BME280;65988;52.422;16.746;2023-07-29T05:10:57;99574.72;;;30.24;49.70
48402;BME280;65988;52.422;16.746;2023-07-29T05:13:52;99691.84;;;32.20;47.69
48402;BME280;65988;52.422;16.746;2023-07-29T05:16:39;99685.00;;;31.83;48.47
48402;BME280;65988;52.422;16.746;2023-07-29T05:19:10;99694.44;;;31.79;48.71
48402;BME280;65988;52.422;16.746;2023-07-29T05:21:41;99473.88;;;30.28;49.28
48402;BME280;65988;52.422;16.746;2023-07-29T05:24:22;99611.53;;;30.35;50.23
48402;BME280;65988;52.422;16.746;2023-07-29T05:27:03;99656.16;;;30.78;49.79
48402;BME280;65988;52.422;16.746;2023-07-29T05:29:47;99718.22;;;30.06;51.38
48402;BME280;65988;52.422;16.746;2023-07-29T05:32:39;99732.00;;;30.24;51.57
48402;BME280;65988;52.422;16.746;2023-07-29T05:35:25;99677.56;;;30.18;51.37
48402;BME280;65988;52.422;16.746;2023-07-29T05:38:00;99754.06;;;31.79;49.51
48402;BME280;65988;52.422;16.746;2023-07-29T05:40:42;99538.59;;;31.65;48.93
48402;BME280;65988;52.422;16.746;2023-07-29T05:43:10;99781.09;;;31.48;50.61
48402;BME280;65988;52.422;16.746;2023-07-29T05:45:38;99603.50;;;31.09;49.58
48402;BME280;65988;52.422;16.746;2023-07-29T05:48:28;99561.34;;;30.39;49.91
48402;BME280;65988;52.422;16.746;2023-07-29T05:51:21;99663.06;;;31.94;48.64
48402;BME280;65988;52.422;16.746;2023-07-29T07:10:20;99602.31;;;33.52;48.11
48402;BME280;65988;52.422;16.746;2023-07-29T07:38:11;99563.50;;;33.74;46.29
48402;BME280;65988;52.422;16.746;2023-07-29T07:41:30;99511.91;;;35.88;42.86
48402;BME280;65988;52.422;16.746;2023-07-29T07:44:02;99493.53;;;35.29;43.76
48402;BME280;65988;52.422;16.746;2023-07-29T07:50:10;99617.97;;;37.49;41.21
48402;BME280;65988;52.422;16.746;2023-07-29T13:59:09;98886.63;;;36.43;37.17
48402;BME280;65988;52.422;16.746;2023-07-29T14:01:45;99431.63;;;41.58;35.60
48402;BME280;65988;52.422;16.746;2023-07-29T14:04:43;99167.38;;;41.95;33.19
48402;BME280;65988;52.422;16.746;2023-07-29T14:10:25;99383.09;;;42.08;36.36
48402;BME280;65988;52.422;16.746;2023-07-29T14:13:40;99298.22;;;43.23;34.42
48402;BME280;65988;52.422;16.746;2023-07-29T14:16:31;99157.44;;;40.77;35.20
48402;BME280;65988;52.422;16.746;2023-07-29T14:36:42;99214.28;;;46.77;31.00
48402;BME280;65988;52.422;16.746;2023-07-29T15:38:42;99497.31;;;38.94;43.17
48402;BME280;65988;52.422;16.746;2023-07-29T15:44:37;99241.28;;;34.60;43.73
48402;BME280;65988;52.422;16.746;2023-07-29T15:47:30;99280.44;;;36.89;40.68
48402;BME280;65988;52.422;16.746;2023-07-29T15:50:40;99195.19;;;37.12;39.60
48402;BME280;65988;52.422;16.746;2023-07-29T16:00:22;99369.44;;;36.11;43.47
48402;BME280;65988;52.422;16.746;2023-07-29T16:25:17;99381.44;;;37.73;40.27
48402;BME280;65988;52.422;16.746;2023-07-29T16:27:54;99435.16;;;37.34;40.93
48402;BME280;65988;52.422;16.746;2023-07-29T16:30:55;99365.00;;;36.76;41.26
48402;BME280;65988;52.422;16.746;2023-07-29T16:33:56;99354.31;;;37.63;39.75
48402;BME280;65988;52.422;16.746;2023-07-29T16:36:39;99490.47;;;37.37;41.00
48402;BME280;65988;52.422;16.746;2023-07-29T16:42:14;99431.63;;;37.45;40.42
48402;BME280;65988;52.422;16.746;2023-07-29T16:52:17;99361.78;;;38.07;39.89
48402;BME280;65988;52.422;16.746;2023-07-29T16:55:33;99315.09;;;38.40;38.63
